sensor_id;sensor_type;location;lat;lon;timestamp;P1;durP1;ratioP1;P2;durP2;ratioP2
54983;SDS011;40884;53.562;9.940;2024-02-26T00:00:37;6.30;;;5.63;;
54983;SDS011;40884;53.562;9.940;2024-02-26T00:01:37;5.67;;;5.17;;
54983;SDS011;40884;53.562;9.940;2024-02-26T00:02:37;6.97;;;5.67;;
54983;SDS011;40884;53.562;9.940;2024-02-26T00:03:37;6.67;;;5.47;;
54983;SDS011;40884;53.562;9.940;2024-02-26T00:04:37;6.30;;;5.70;;
54983;SDS011;40884;53.562;9.940;2024-02-26T00:05:38;6.07;;;5.43;;
54983;SDS011;40884;53.562;9.940;2024-02-26T00:06:38;6.27;;;5.43;;
54983;SDS011;40884;53.562;9.940;2024-02-26T00:07:38;7.10;;;6.13;;
54983;SDS011;40884;53.562;9.940;2024-02-26T00:08:38;6.43;;;5.77;;
54983;SDS011;40884;53.562;9.940;2024-02-26T00:09:38;6.87;;;5.87;;
54983;SDS011;40884;53.562;9.940;2024-02-26T00:10:38;6.40;;;5.80;;
54983;SDS011;40884;53.562;9.940;2024-02-26T00:11:39;7.37;;;5.87;;
54983;SDS011;40884;53.562;9.940;2024-02-26T00:12:39;8.33;;;6.80;;
54983;SDS011;40884;53.562;9.940;2024-02-26T00:13:39;8.03;;;6.57;;
54983;SDS011;40884;53.562;9.940;2024-02-26T00:14:39;6.70;;;5.97;;
54983;SDS011;40884;53.562;9.940;2024-02-26T00:15:39;7.43;;;6.03;;
54983;SDS011;40884;53.562;9.940;2024-02-26T00:16:40;6.50;;;5.90;;
54983;SDS011;40884;53.562;9.940;2024-02-26T00:17:40;7.03;;;6.23;;
54983;SDS011;40884;53.562;9.940;2024-02-26T00:18:40;6.73;;;6.13;;
54983;SDS011;40884;53.562;9.940;2024-02-26T00:19:40;6.90;;;6.20;;
54983;SDS011;40884;53.562;9.940;2024-02-26T00:20:40;7.17;;;5.73;;
54983;SDS011;40884;53.562;9.940;2024-02-26T00:21:40;7.17;;;6.47;;
54983;SDS011;40884;53.562;9.940;2024-02-26T00:22:41;6.70;;;6.00;;
54983;SDS011;40884;53.562;9.940;2024-02-26T00:23:41;6.07;;;5.47;;
54983;SDS011;40884;53.562;9.940;2024-02-26T00:24:41;7.07;;;6.37;;
54983;SDS011;40884;53.562;9.940;2024-02-26T00:25:41;6.87;;;6.27;;
54983;SDS011;40884;53.562;9.940;2024-02-26T00:26:41;6.67;;;5.97;;
54983;SDS011;40884;53.562;9.940;2024-02-26T00:27:41;6.97;;;6.27;;
54983;SDS011;40884;53.562;9.940;2024-02-26T00:28:43;6.10;;;5.53;;
54983;SDS011;40884;53.562;9.940;2024-02-26T00:29:43;6.82;;;6.13;;
54983;SDS011;40884;53.562;9.940;2024-02-26T00:30:43;6.53;;;5.90;;
54983;SDS011;40884;53.562;9.940;2024-02-26T00:31:43;6.50;;;5.90;;
54983;SDS011;40884;53.562;9.940;2024-02-26T00:32:43;6.90;;;6.23;;
54983;SDS011;40884;53.562;9.940;2024-02-26T00:33:43;7.37;;;6.67;;
54983;SDS011;40884;53.562;9.940;2024-02-26T00:34:43;6.67;;;6.00;;
54983;SDS011;40884;53.562;9.940;2024-02-26T00:35:44;6.80;;;6.20;;
54983;SDS011;40884;53.562;9.940;2024-02-26T00:36:44;6.73;;;6.10;;
54983;SDS011;40884;53.562;9.940;2024-02-26T00:37:44;6.97;;;6.37;;
54983;SDS011;40884;53.562;9.940;2024-02-26T00:38:44;6.67;;;6.07;;
54983;SDS011;40884;53.562;9.940;2024-02-26T00:39:44;7.77;;;7.00;;
54983;SDS011;40884;53.562;9.940;2024-02-26T00:40:44;7.20;;;6.50;;
54983;SDS011;40884;53.562;9.940;2024-02-26T00:41:44;6.93;;;6.23;;
54983;SDS011;40884;53.562;9.940;2024-02-26T00:42:44;7.40;;;6.40;;
54983;SDS011;40884;53.562;9.940;2024-02-26T00:43:44;7.00;;;6.30;;
54983;SDS011;40884;53.562;9.940;2024-02-26T00:44:44;6.73;;;6.13;;
54983;SDS011;40884;53.562;9.940;2024-02-26T00:45:45;6.80;;;6.10;;
54983;SDS011;40884;53.562;9.940;2024-02-26T00:46:45;6.97;;;6.37;;
54983;SDS011;40884;53.562;9.940;2024-02-26T00:47:45;7.30;;;6.70;;
54983;SDS011;40884;53.562;9.940;2024-02-26T00:48:45;7.53;;;6.73;;
54983;SDS011;40884;53.562;9.940;2024-02-26T00:49:45;6.70;;;6.00;;
54983;SDS011;40884;53.562;9.940;2024-02-26T00:50:45;7.30;;;6.57;;
54983;SDS011;40884;53.562;9.940;2024-02-26T00:51:45;7.30;;;6.60;;
54983;SDS011;40884;53.562;9.940;2024-02-26T00:52:45;6.87;;;6.27;;
54983;SDS011;40884;53.562;9.940;2024-02-26T00:53:45;7.47;;;6.77;;
54983;SDS011;40884;53.562;9.940;2024-02-26T00:54:46;7.37;;;6.13;;
54983;SDS011;40884;53.562;9.940;2024-02-26T00:55:46;6.80;;;6.20;;
54983;SDS011;40884;53.562;9.940;2024-02-26T00:56:46;7.60;;;6.70;;
54983;SDS011;40884;53.562;9.940;2024-02-26T00:57:46;6.47;;;5.87;;
54983;SDS011;40884;53.562;9.940;2024-02-26T00:58:46;6.53;;;5.93;;
54983;SDS011;40884;53.562;9.940;2024-02-26T00:59:46;7.30;;;6.60;;
54983;SDS011;40884;53.562;9.940;2024-02-26T01:00:46;7.57;;;6.87;;
54983;SDS011;40884;53.562;9.940;2024-02-26T01:01:46;7.13;;;6.43;;
54983;SDS011;40884;53.562;9.940;2024-02-26T01:02:47;7.13;;;6.43;;
54983;SDS011;40884;53.562;9.940;2024-02-26T01:03:47;6.97;;;6.37;;
54983;SDS011;40884;53.562;9.940;2024-02-26T01:04:47;7.43;;;6.60;;
54983;SDS011;40884;53.562;9.940;2024-02-26T01:05:47;8.17;;;6.63;;
54983;SDS011;40884;53.562;9.940;2024-02-26T01:06:47;6.93;;;6.30;;
54983;SDS011;40884;53.562;9.940;2024-02-26T01:07:47;6.80;;;6.10;;
54983;SDS011;40884;53.562;9.940;2024-02-26T01:08:47;6.90;;;6.30;;
54983;SDS011;40884;53.562;9.940;2024-02-26T01:09:47;7.50;;;6.67;;
54983;SDS011;40884;53.562;9.940;2024-02-26T01:10:48;6.60;;;5.97;;
54983;SDS011;40884;53.562;9.940;2024-02-26T01:11:48;7.67;;;6.90;;
54983;SDS011;40884;53.562;9.940;2024-02-26T01:12:48;7.40;;;6.60;;
54983;SDS011;40884;53.562;9.940;2024-02-26T01:13:48;7.73;;;6.87;;
54983;SDS011;40884;53.562;9.940;2024-02-26T01:14:48;8.10;;;7.30;;
54983;SDS011;40884;53.562;9.940;2024-02-26T01:15:48;7.70;;;6.97;;
54983;SDS011;40884;53.562;9.940;2024-02-26T01:16:48;7.80;;;7.10;;
54983;SDS011;40884;53.562;9.940;2024-02-26T01:17:49;8.20;;;7.40;;
54983;SDS011;40884;53.562;9.940;2024-02-26T01:18:49;7.87;;;7.07;;
54983;SDS011;40884;53.562;9.940;2024-02-26T01:19:49;8.73;;;7.67;;
54983;SDS011;40884;53.562;9.940;2024-02-26T01:20:49;7.57;;;6.77;;
54983;SDS011;40884;53.562;9.940;2024-02-26T01:21:49;7.33;;;6.63;;
54983;SDS011;40884;53.562;9.940;2024-02-26T01:22:49;7.50;;;6.80;;
54983;SDS011;40884;53.562;9.940;2024-02-26T01:23:50;7.20;;;6.50;;
54983;SDS011;40884;53.562;9.940;2024-02-26T01:24:50;7.90;;;7.20;;
54983;SDS011;40884;53.562;9.940;2024-02-26T01:25:50;7.43;;;6.73;;
54983;SDS011;40884;53.562;9.940;2024-02-26T01:26:50;7.73;;;6.93;;
54983;SDS011;40884;53.562;9.940;2024-02-26T01:27:50;8.00;;;7.20;;
54983;SDS011;40884;53.562;9.940;2024-02-26T01:28:50;7.97;;;6.80;;
54983;SDS011;40884;53.562;9.940;2024-02-26T01:29:50;8.47;;;7.67;;
54983;SDS011;40884;53.562;9.940;2024-02-26T01:30:50;8.67;;;7.87;;
54983;SDS011;40884;53.562;9.940;2024-02-26T01:31:50;8.20;;;7.40;;
54983;SDS011;40884;53.562;9.940;2024-02-26T01:32:50;7.77;;;7.07;;
54983;SDS011;40884;53.562;9.940;2024-02-26T01:33:51;8.30;;;7.50;;
54983;SDS011;40884;53.562;9.940;2024-02-26T01:34:51;8.07;;;7.20;;
54983;SDS011;40884;53.562;9.940;2024-02-26T01:35:51;8.27;;;7.47;;
54983;SDS011;40884;53.562;9.940;2024-02-26T01:36:51;8.20;;;7.23;;
54983;SDS011;40884;53.562;9.940;2024-02-26T01:37:51;8.17;;;7.47;;
54983;SDS011;40884;53.562;9.940;2024-02-26T01:38:51;8.47;;;7.60;;
54983;SDS011;40884;53.562;9.940;2024-02-26T01:39:51;7.80;;;7.03;;
54983;SDS011;40884;53.562;9.940;2024-02-26T01:40:51;7.90;;;6.87;;
54983;SDS011;40884;53.562;9.940;2024-02-26T01:41:51;8.60;;;7.70;;
54983;SDS011;40884;53.562;9.940;2024-02-26T01:42:52;7.67;;;6.97;;
54983;SDS011;40884;53.562;9.940;2024-02-26T01:43:52;7.87;;;7.07;;
54983;SDS011;40884;53.562;9.940;2024-02-26T01:44:52;8.20;;;7.40;;
54983;SDS011;40884;53.562;9.940;2024-02-26T01:45:52;8.63;;;7.30;;
54983;SDS011;40884;53.562;9.940;2024-02-26T01:46:53;8.33;;;7.53;;
54983;SDS011;40884;53.562;9.940;2024-02-26T01:47:53;9.17;;;7.70;;
54983;SDS011;40884;53.562;9.940;2024-02-26T01:48:54;8.80;;;7.90;;
54983;SDS011;40884;53.562;9.940;2024-02-26T01:49:54;8.47;;;7.50;;
54983;SDS011;40884;53.562;9.940;2024-02-26T01:50:54;9.33;;;7.53;;
54983;SDS011;40884;53.562;9.940;2024-02-26T01:51:54;8.80;;;7.90;;
54983;SDS011;40884;53.562;9.940;2024-02-26T01:52:55;9.03;;;8.07;;
54983;SDS011;40884;53.562;9.940;2024-02-26T01:53:55;9.13;;;8.10;;
54983;SDS011;40884;53.562;9.940;2024-02-26T01:54:55;9.57;;;7.23;;
54983;SDS011;40884;53.562;9.940;2024-02-26T01:55:55;10.10;;;7.47;;
54983;SDS011;40884;53.562;9.940;2024-02-26T01:56:56;8.03;;;7.07;;
54983;SDS011;40884;53.562;9.940;2024-02-26T01:57:56;10.70;;;7.80;;
54983;SDS011;40884;53.562;9.940;2024-02-26T01:58:57;8.43;;;7.53;;
54983;SDS011;40884;53.562;9.940;2024-02-26T01:59:57;10.43;;;8.13;;
54983;SDS011;40884;53.562;9.940;2024-02-26T02:00:57;9.03;;;8.13;;
54983;SDS011;40884;53.562;9.940;2024-02-26T02:01:58;9.05;;;8.15;;
54983;SDS011;40884;53.562;9.940;2024-02-26T02:02:59;10.13;;;8.67;;
54983;SDS011;40884;53.562;9.940;2024-02-26T02:03:59;9.03;;;7.83;;
54983;SDS011;40884;53.562;9.940;2024-02-26T02:04:59;9.27;;;8.23;;
54983;SDS011;40884;53.562;9.940;2024-02-26T02:06:00;9.37;;;7.63;;
54983;SDS011;40884;53.562;9.940;2024-02-26T02:07:00;9.00;;;8.07;;
54983;SDS011;40884;53.562;9.940;2024-02-26T02:08:01;9.37;;;7.97;;
54983;SDS011;40884;53.562;9.940;2024-02-26T02:09:01;9.57;;;8.23;;
54983;SDS011;40884;53.562;9.940;2024-02-26T02:10:01;9.90;;;8.60;;
54983;SDS011;40884;53.562;9.940;2024-02-26T02:11:02;9.47;;;7.90;;
54983;SDS011;40884;53.562;9.940;2024-02-26T02:12:02;9.17;;;7.90;;
54983;SDS011;40884;53.562;9.940;2024-02-26T02:13:02;9.60;;;8.60;;
54983;SDS011;40884;53.562;9.940;2024-02-26T02:14:02;9.23;;;8.33;;
54983;SDS011;40884;53.562;9.940;2024-02-26T02:15:02;9.87;;;8.87;;
54983;SDS011;40884;53.562;9.940;2024-02-26T02:16:03;10.47;;;8.10;;
54983;SDS011;40884;53.562;9.940;2024-02-26T02:17:03;9.27;;;8.23;;
54983;SDS011;40884;53.562;9.940;2024-02-26T02:18:04;11.17;;;8.47;;
54983;SDS011;40884;53.562;9.940;2024-02-26T02:19:04;10.47;;;9.23;;
54983;SDS011;40884;53.562;9.940;2024-02-26T02:20:07;9.87;;;8.67;;
54983;SDS011;40884;53.562;9.940;2024-02-26T02:21:07;11.38;;;9.55;;
54983;SDS011;40884;53.562;9.940;2024-02-26T02:22:07;12.13;;;9.17;;
54983;SDS011;40884;53.562;9.940;2024-02-26T02:23:08;9.70;;;8.70;;
54983;SDS011;40884;53.562;9.940;2024-02-26T02:24:08;12.13;;;8.60;;
54983;SDS011;40884;53.562;9.940;2024-02-26T02:25:08;10.97;;;8.70;;
54983;SDS011;40884;53.562;9.940;2024-02-26T02:26:08;10.07;;;8.13;;
54983;SDS011;40884;53.562;9.940;2024-02-26T02:27:08;10.73;;;9.63;;
54983;SDS011;40884;53.562;9.940;2024-02-26T02:28:08;9.13;;;8.10;;
54983;SDS011;40884;53.562;9.940;2024-02-26T02:29:09;9.87;;;8.70;;
54983;SDS011;40884;53.562;9.940;2024-02-26T02:30:09;13.17;;;9.40;;
54983;SDS011;40884;53.562;9.940;2024-02-26T02:31:10;10.87;;;8.83;;
54983;SDS011;40884;53.562;9.940;2024-02-26T02:32:10;10.20;;;9.20;;
54983;SDS011;40884;53.562;9.940;2024-02-26T02:33:11;11.10;;;9.77;;
54983;SDS011;40884;53.562;9.940;2024-02-26T02:34:11;11.00;;;9.67;;
54983;SDS011;40884;53.562;9.940;2024-02-26T02:35:12;11.10;;;10.00;;
54983;SDS011;40884;53.562;9.940;2024-02-26T02:36:12;11.90;;;10.60;;
54983;SDS011;40884;53.562;9.940;2024-02-26T02:37:12;10.57;;;9.53;;
54983;SDS011;40884;53.562;9.940;2024-02-26T02:38:12;11.53;;;9.60;;
54983;SDS011;40884;53.562;9.940;2024-02-26T02:39:12;11.60;;;10.50;;
54983;SDS011;40884;53.562;9.940;2024-02-26T02:40:12;11.30;;;10.10;;
54983;SDS011;40884;53.562;9.940;2024-02-26T02:41:12;11.50;;;10.30;;
54983;SDS011;40884;53.562;9.940;2024-02-26T02:42:12;11.90;;;10.50;;
54983;SDS011;40884;53.562;9.940;2024-02-26T02:43:13;12.50;;;10.33;;
54983;SDS011;40884;53.562;9.940;2024-02-26T02:44:13;11.37;;;10.17;;
54983;SDS011;40884;53.562;9.940;2024-02-26T02:45:13;12.83;;;10.07;;
54983;SDS011;40884;53.562;9.940;2024-02-26T02:46:13;11.10;;;9.63;;
54983;SDS011;40884;53.562;9.940;2024-02-26T02:47:13;12.23;;;10.07;;
54983;SDS011;40884;53.562;9.940;2024-02-26T02:48:13;11.03;;;9.73;;
54983;SDS011;40884;53.562;9.940;2024-02-26T02:49:13;10.40;;;9.40;;
54983;SDS011;40884;53.562;9.940;2024-02-26T02:50:13;12.00;;;10.77;;
54983;SDS011;40884;53.562;9.940;2024-02-26T02:51:14;13.53;;;11.10;;
54983;SDS011;40884;53.562;9.940;2024-02-26T02:52:14;11.73;;;9.70;;
54983;SDS011;40884;53.562;9.940;2024-02-26T02:53:14;11.23;;;9.00;;
54983;SDS011;40884;53.562;9.940;2024-02-26T02:54:14;10.43;;;9.27;;
54983;SDS011;40884;53.562;9.940;2024-02-26T02:55:14;12.00;;;10.70;;
54983;SDS011;40884;53.562;9.940;2024-02-26T02:56:14;11.40;;;10.30;;
54983;SDS011;40884;53.562;9.940;2024-02-26T02:57:15;11.40;;;9.73;;
54983;SDS011;40884;53.562;9.940;2024-02-26T02:58:15;12.00;;;10.77;;
54983;SDS011;40884;53.562;9.940;2024-02-26T02:59:15;11.60;;;10.37;;
54983;SDS011;40884;53.562;9.940;2024-02-26T03:00:15;13.40;;;10.50;;
54983;SDS011;40884;53.562;9.940;2024-02-26T03:01:15;12.27;;;10.97;;
54983;SDS011;40884;53.562;9.940;2024-02-26T03:02:15;12.77;;;11.10;;
54983;SDS011;40884;53.562;9.940;2024-02-26T03:03:15;12.27;;;11.00;;
54983;SDS011;40884;53.562;9.940;2024-02-26T03:04:16;11.27;;;10.07;;
54983;SDS011;40884;53.562;9.940;2024-02-26T03:05:16;11.57;;;10.37;;
54983;SDS011;40884;53.562;9.940;2024-02-26T03:06:16;12.90;;;11.50;;
54983;SDS011;40884;53.562;9.940;2024-02-26T03:07:16;12.77;;;11.40;;
54983;SDS011;40884;53.562;9.940;2024-02-26T03:08:16;13.27;;;11.93;;
54983;SDS011;40884;53.562;9.940;2024-02-26T03:09:16;12.47;;;11.17;;
54983;SDS011;40884;53.562;9.940;2024-02-26T03:10:16;12.87;;;11.47;;
54983;SDS011;40884;53.562;9.940;2024-02-26T03:11:16;11.93;;;10.73;;
54983;SDS011;40884;53.562;9.940;2024-02-26T03:12:17;14.87;;;11.57;;
54983;SDS011;40884;53.562;9.940;2024-02-26T03:13:17;12.80;;;11.13;;
54983;SDS011;40884;53.562;9.940;2024-02-26T03:14:17;11.30;;;10.10;;
54983;SDS011;40884;53.562;9.940;2024-02-26T03:15:17;12.60;;;11.20;;
54983;SDS011;40884;53.562;9.940;2024-02-26T03:16:17;12.97;;;11.50;;
54983;SDS011;40884;53.562;9.940;2024-02-26T03:17:17;12.27;;;10.97;;
54983;SDS011;40884;53.562;9.940;2024-02-26T03:18:17;13.10;;;11.00;;
54983;SDS011;40884;53.562;9.940;2024-02-26T03:19:17;12.43;;;11.13;;
54983;SDS011;40884;53.562;9.940;2024-02-26T03:20:18;13.20;;;11.80;;
54983;SDS011;40884;53.562;9.940;2024-02-26T03:21:18;13.53;;;12.13;;
54983;SDS011;40884;53.562;9.940;2024-02-26T03:22:18;13.77;;;12.17;;
54983;SDS011;40884;53.562;9.940;2024-02-26T03:23:18;15.47;;;11.53;;
54983;SDS011;40884;53.562;9.940;2024-02-26T03:24:18;14.73;;;12.30;;
54983;SDS011;40884;53.562;9.940;2024-02-26T03:25:19;13.33;;;11.73;;
54983;SDS011;40884;53.562;9.940;2024-02-26T03:26:19;14.17;;;12.40;;
54983;SDS011;40884;53.562;9.940;2024-02-26T03:27:19;14.80;;;13.20;;
54983;SDS011;40884;53.562;9.940;2024-02-26T03:28:19;13.30;;;11.90;;
54983;SDS011;40884;53.562;9.940;2024-02-26T03:29:19;13.67;;;12.27;;
54983;SDS011;40884;53.562;9.940;2024-02-26T03:30:19;14.60;;;12.83;;
54983;SDS011;40884;53.562;9.940;2024-02-26T03:31:19;13.93;;;12.40;;
54983;SDS011;40884;53.562;9.940;2024-02-26T03:32:19;13.87;;;12.43;;
54983;SDS011;40884;53.562;9.940;2024-02-26T03:33:19;15.03;;;12.77;;
54983;SDS011;40884;53.562;9.940;2024-02-26T03:34:20;14.20;;;12.73;;
54983;SDS011;40884;53.562;9.940;2024-02-26T03:35:20;13.90;;;12.50;;
54983;SDS011;40884;53.562;9.940;2024-02-26T03:36:20;13.43;;;12.03;;
54983;SDS011;40884;53.562;9.940;2024-02-26T03:37:20;13.87;;;12.20;;
54983;SDS011;40884;53.562;9.940;2024-02-26T03:38:20;15.57;;;12.97;;
54983;SDS011;40884;53.562;9.940;2024-02-26T03:39:20;14.70;;;12.97;;
54983;SDS011;40884;53.562;9.940;2024-02-26T03:40:20;14.57;;;13.07;;
54983;SDS011;40884;53.562;9.940;2024-02-26T03:41:20;14.03;;;12.63;;
54983;SDS011;40884;53.562;9.940;2024-02-26T03:42:20;14.90;;;13.20;;
54983;SDS011;40884;53.562;9.940;2024-02-26T03:43:21;14.43;;;12.93;;
54983;SDS011;40884;53.562;9.940;2024-02-26T03:44:21;14.67;;;13.17;;
54983;SDS011;40884;53.562;9.940;2024-02-26T03:45:21;14.33;;;12.83;;
54983;SDS011;40884;53.562;9.940;2024-02-26T03:46:21;14.63;;;13.10;;
54983;SDS011;40884;53.562;9.940;2024-02-26T03:47:21;15.17;;;12.93;;
54983;SDS011;40884;53.562;9.940;2024-02-26T03:48:21;14.33;;;12.93;;
54983;SDS011;40884;53.562;9.940;2024-02-26T03:49:21;14.73;;;13.23;;
54983;SDS011;40884;53.562;9.940;2024-02-26T03:50:21;14.40;;;12.43;;
54983;SDS011;40884;53.562;9.940;2024-02-26T03:51:22;13.07;;;11.67;;
54983;SDS011;40884;53.562;9.940;2024-02-26T03:52:22;14.27;;;12.77;;
54983;SDS011;40884;53.562;9.940;2024-02-26T03:53:22;15.90;;;14.30;;
54983;SDS011;40884;53.562;9.940;2024-02-26T03:54:22;15.17;;;13.60;;
54983;SDS011;40884;53.562;9.940;2024-02-26T03:55:22;16.10;;;13.83;;
54983;SDS011;40884;53.562;9.940;2024-02-26T03:56:22;15.97;;;14.37;;
54983;SDS011;40884;53.562;9.940;2024-02-26T03:57:22;15.37;;;13.77;;
54983;SDS011;40884;53.562;9.940;2024-02-26T03:58:22;16.07;;;14.30;;
54983;SDS011;40884;53.562;9.940;2024-02-26T03:59:22;15.17;;;13.57;;
54983;SDS011;40884;53.562;9.940;2024-02-26T04:00:23;14.40;;;13.00;;
54983;SDS011;40884;53.562;9.940;2024-02-26T04:01:23;15.20;;;13.60;;
54983;SDS011;40884;53.562;9.940;2024-02-26T04:02:23;14.90;;;13.40;;
54983;SDS011;40884;53.562;9.940;2024-02-26T04:03:23;16.00;;;14.03;;
54983;SDS011;40884;53.562;9.940;2024-02-26T04:04:23;15.80;;;14.17;;
54983;SDS011;40884;53.562;9.940;2024-02-26T04:05:23;14.43;;;12.90;;
54983;SDS011;40884;53.562;9.940;2024-02-26T04:06:23;15.67;;;13.43;;
54983;SDS011;40884;53.562;9.940;2024-02-26T04:07:23;15.57;;;13.93;;
54983;SDS011;40884;53.562;9.940;2024-02-26T04:08:23;16.10;;;14.40;;
54983;SDS011;40884;53.562;9.940;2024-02-26T04:09:24;15.97;;;13.47;;
54983;SDS011;40884;53.562;9.940;2024-02-26T04:10:24;16.77;;;13.97;;
54983;SDS011;40884;53.562;9.940;2024-02-26T04:11:24;15.50;;;13.90;;
54983;SDS011;40884;53.562;9.940;2024-02-26T04:12:24;15.03;;;13.43;;
54983;SDS011;40884;53.562;9.940;2024-02-26T04:13:24;16.07;;;14.10;;
54983;SDS011;40884;53.562;9.940;2024-02-26T04:14:24;19.70;;;13.47;;
54983;SDS011;40884;53.562;9.940;2024-02-26T04:15:24;15.30;;;13.70;;
54983;SDS011;40884;53.562;9.940;2024-02-26T04:16:24;15.97;;;14.23;;
54983;SDS011;40884;53.562;9.940;2024-02-26T04:17:25;15.13;;;13.13;;
54983;SDS011;40884;53.562;9.940;2024-02-26T04:18:25;16.87;;;13.60;;
54983;SDS011;40884;53.562;9.940;2024-02-26T04:19:25;14.83;;;13.43;;
54983;SDS011;40884;53.562;9.940;2024-02-26T04:20:25;15.13;;;13.60;;
54983;SDS011;40884;53.562;9.940;2024-02-26T04:21:25;15.70;;;13.80;;
54983;SDS011;40884;53.562;9.940;2024-02-26T04:22:25;15.50;;;13.50;;
54983;SDS011;40884;53.562;9.940;2024-02-26T04:23:25;15.00;;;13.47;;
54983;SDS011;40884;53.562;9.940;2024-02-26T04:24:25;15.37;;;13.47;;
54983;SDS011;40884;53.562;9.940;2024-02-26T04:25:25;17.13;;;15.37;;
54983;SDS011;40884;53.562;9.940;2024-02-26T04:26:26;16.27;;;14.23;;
54983;SDS011;40884;53.562;9.940;2024-02-26T04:27:26;16.00;;;14.20;;
54983;SDS011;40884;53.562;9.940;2024-02-26T04:28:26;15.70;;;14.10;;
54983;SDS011;40884;53.562;9.940;2024-02-26T04:29:26;16.73;;;14.93;;
54983;SDS011;40884;53.562;9.940;2024-02-26T04:30:26;16.23;;;14.40;;
54983;SDS011;40884;53.562;9.940;2024-02-26T04:31:26;16.50;;;14.90;;
54983;SDS011;40884;53.562;9.940;2024-02-26T04:32:26;17.47;;;15.03;;
54983;SDS011;40884;53.562;9.940;2024-02-26T04:33:27;16.00;;;14.30;;
54983;SDS011;40884;53.562;9.940;2024-02-26T04:34:27;16.27;;;14.57;;
54983;SDS011;40884;53.562;9.940;2024-02-26T04:35:27;17.00;;;14.87;;
54983;SDS011;40884;53.562;9.940;2024-02-26T04:36:27;16.27;;;14.40;;
54983;SDS011;40884;53.562;9.940;2024-02-26T04:37:27;16.77;;;14.97;;
54983;SDS011;40884;53.562;9.940;2024-02-26T04:38:27;18.60;;;15.30;;
54983;SDS011;40884;53.562;9.940;2024-02-26T04:39:27;17.37;;;15.17;;
54983;SDS011;40884;53.562;9.940;2024-02-26T04:40:27;16.57;;;14.83;;
54983;SDS011;40884;53.562;9.940;2024-02-26T04:41:27;15.87;;;14.03;;
54983;SDS011;40884;53.562;9.940;2024-02-26T04:42:27;16.30;;;13.37;;
54983;SDS011;40884;53.562;9.940;2024-02-26T04:43:28;15.57;;;13.67;;
54983;SDS011;40884;53.562;9.940;2024-02-26T04:44:28;16.87;;;14.30;;
54983;SDS011;40884;53.562;9.940;2024-02-26T04:45:28;17.43;;;14.40;;
54983;SDS011;40884;53.562;9.940;2024-02-26T04:46:28;16.53;;;14.83;;
54983;SDS011;40884;53.562;9.940;2024-02-26T04:47:28;16.50;;;14.80;;
54983;SDS011;40884;53.562;9.940;2024-02-26T04:48:28;17.93;;;15.23;;
54983;SDS011;40884;53.562;9.940;2024-02-26T04:49:28;15.60;;;13.93;;
54983;SDS011;40884;53.562;9.940;2024-02-26T04:50:28;16.40;;;14.67;;
54983;SDS011;40884;53.562;9.940;2024-02-26T04:51:29;16.87;;;14.03;;
54983;SDS011;40884;53.562;9.940;2024-02-26T04:52:29;16.63;;;14.87;;
54983;SDS011;40884;53.562;9.940;2024-02-26T04:53:29;16.70;;;14.00;;
54983;SDS011;40884;53.562;9.940;2024-02-26T04:54:29;15.70;;;14.00;;
54983;SDS011;40884;53.562;9.940;2024-02-26T04:55:29;15.53;;;13.57;;
54983;SDS011;40884;53.562;9.940;2024-02-26T04:56:29;16.13;;;13.83;;
54983;SDS011;40884;53.562;9.940;2024-02-26T04:57:29;16.30;;;14.50;;
54983;SDS011;40884;53.562;9.940;2024-02-26T04:58:29;17.40;;;15.37;;
54983;SDS011;40884;53.562;9.940;2024-02-26T04:59:30;17.10;;;15.13;;
54983;SDS011;40884;53.562;9.940;2024-02-26T05:00:30;17.00;;;14.57;;
54983;SDS011;40884;53.562;9.940;2024-02-26T05:01:30;17.67;;;14.33;;
54983;SDS011;40884;53.562;9.940;2024-02-26T05:02:30;16.97;;;14.80;;
54983;SDS011;40884;53.562;9.940;2024-02-26T05:03:30;17.67;;;14.47;;
54983;SDS011;40884;53.562;9.940;2024-02-26T05:04:30;18.90;;;15.30;;
54983;SDS011;40884;53.562;9.940;2024-02-26T05:05:30;15.90;;;14.17;;
54983;SDS011;40884;53.562;9.940;2024-02-26T05:06:30;17.50;;;14.40;;
54983;SDS011;40884;53.562;9.940;2024-02-26T05:07:31;16.17;;;14.47;;
54983;SDS011;40884;53.562;9.940;2024-02-26T05:08:31;16.53;;;14.40;;
54983;SDS011;40884;53.562;9.940;2024-02-26T05:09:31;17.87;;;14.97;;
54983;SDS011;40884;53.562;9.940;2024-02-26T05:10:31;15.37;;;13.77;;
54983;SDS011;40884;53.562;9.940;2024-02-26T05:11:31;16.53;;;14.73;;
54983;SDS011;40884;53.562;9.940;2024-02-26T05:12:31;16.57;;;14.23;;
54983;SDS011;40884;53.562;9.940;2024-02-26T05:13:32;14.50;;;12.30;;
54983;SDS011;40884;53.562;9.940;2024-02-26T05:14:32;15.20;;;13.60;;
54983;SDS011;40884;53.562;9.940;2024-02-26T05:15:32;16.30;;;14.47;;
54983;SDS011;40884;53.562;9.940;2024-02-26T05:16:32;15.90;;;13.60;;
54983;SDS011;40884;53.562;9.940;2024-02-26T05:17:32;16.33;;;14.10;;
54983;SDS011;40884;53.562;9.940;2024-02-26T05:18:32;16.00;;;13.27;;
54983;SDS011;40884;53.562;9.940;2024-02-26T05:19:32;15.63;;;13.53;;
54983;SDS011;40884;53.562;9.940;2024-02-26T05:20:32;16.43;;;14.17;;
54983;SDS011;40884;53.562;9.940;2024-02-26T05:21:32;15.20;;;13.53;;
54983;SDS011;40884;53.562;9.940;2024-02-26T05:22:33;15.83;;;13.73;;
54983;SDS011;40884;53.562;9.940;2024-02-26T05:23:33;17.43;;;14.43;;
54983;SDS011;40884;53.562;9.940;2024-02-26T05:24:33;16.63;;;14.83;;
54983;SDS011;40884;53.562;9.940;2024-02-26T05:25:33;17.63;;;14.77;;
54983;SDS011;40884;53.562;9.940;2024-02-26T05:26:33;15.50;;;13.63;;
54983;SDS011;40884;53.562;9.940;2024-02-26T05:27:33;15.83;;;14.23;;
54983;SDS011;40884;53.562;9.940;2024-02-26T05:28:33;17.90;;;14.20;;
54983;SDS011;40884;53.562;9.940;2024-02-26T05:29:33;17.27;;;14.20;;
54983;SDS011;40884;53.562;9.940;2024-02-26T05:30:33;19.33;;;15.53;;
54983;SDS011;40884;53.562;9.940;2024-02-26T05:31:34;15.50;;;13.80;;
54983;SDS011;40884;53.562;9.940;2024-02-26T05:32:34;17.67;;;15.60;;
54983;SDS011;40884;53.562;9.940;2024-02-26T05:33:34;17.87;;;14.57;;
54983;SDS011;40884;53.562;9.940;2024-02-26T05:34:34;18.73;;;14.53;;
54983;SDS011;40884;53.562;9.940;2024-02-26T05:35:34;16.57;;;14.80;;
54983;SDS011;40884;53.562;9.940;2024-02-26T05:36:34;17.33;;;15.27;;
54983;SDS011;40884;53.562;9.940;2024-02-26T05:37:34;19.27;;;15.20;;
54983;SDS011;40884;53.562;9.940;2024-02-26T05:38:34;17.73;;;15.23;;
54983;SDS011;40884;53.562;9.940;2024-02-26T05:39:34;19.23;;;15.90;;
54983;SDS011;40884;53.562;9.940;2024-02-26T05:40:35;18.13;;;14.40;;
54983;SDS011;40884;53.562;9.940;2024-02-26T05:41:35;17.43;;;13.87;;
54983;SDS011;40884;53.562;9.940;2024-02-26T05:42:35;17.43;;;14.67;;
54983;SDS011;40884;53.562;9.940;2024-02-26T05:43:35;17.77;;;14.07;;
54983;SDS011;40884;53.562;9.940;2024-02-26T05:44:35;15.97;;;14.23;;
54983;SDS011;40884;53.562;9.940;2024-02-26T05:45:35;15.37;;;12.83;;
54983;SDS011;40884;53.562;9.940;2024-02-26T05:46:35;15.57;;;13.90;;
54983;SDS011;40884;53.562;9.940;2024-02-26T05:47:35;17.30;;;14.33;;
54983;SDS011;40884;53.562;9.940;2024-02-26T05:48:35;15.33;;;13.40;;
54983;SDS011;40884;53.562;9.940;2024-02-26T05:49:36;14.43;;;12.80;;
54983;SDS011;40884;53.562;9.940;2024-02-26T05:50:36;16.27;;;14.57;;
54983;SDS011;40884;53.562;9.940;2024-02-26T05:51:36;16.03;;;14.33;;
54983;SDS011;40884;53.562;9.940;2024-02-26T05:52:39;15.80;;;14.17;;
54983;SDS011;40884;53.562;9.940;2024-02-26T05:53:40;14.57;;;12.98;;
54983;SDS011;40884;53.562;9.940;2024-02-26T05:54:40;15.23;;;13.60;;
54983;SDS011;40884;53.562;9.940;2024-02-26T05:55:41;15.73;;;13.43;;
54983;SDS011;40884;53.562;9.940;2024-02-26T05:56:41;16.37;;;13.50;;